sensor_id;sensor_type;location;lat;lon;timestamp;P1;durP1;ratioP1;P2;durP2;ratioP2
68250;SDS011;55066;51.560;4.642;2023-04-06T00:01:09;30.65;;;13.10;;
68250;SDS011;55066;51.560;4.642;2023-04-06T00:03:35;28.63;;;13.10;;
68250;SDS011;55066;51.560;4.642;2023-04-06T00:06:01;27.65;;;12.05;;
68250;SDS011;55066;51.560;4.642;2023-04-06T00:08:27;27.97;;;12.27;;
68250;SDS011;55066;51.560;4.642;2023-04-06T00:10:53;30.33;;;12.57;;
68250;SDS011;55066;51.560;4.642;2023-04-06T00:13:19;31.80;;;13.90;;
68250;SDS011;55066;51.560;4.642;2023-04-06T00:15:44;30.13;;;12.50;;
68250;SDS011;55066;51.560;4.642;2023-04-06T00:18:10;32.23;;;14.07;;
68250;SDS011;55066;51.560;4.642;2023-04-06T00:20:35;30.07;;;12.97;;
68250;SDS011;55066;51.560;4.642;2023-04-06T00:23:00;32.40;;;13.07;;
68250;SDS011;55066;51.560;4.642;2023-04-06T00:25:26;31.33;;;13.40;;
68250;SDS011;55066;51.560;4.642;2023-04-06T00:27:51;27.92;;;13.20;;
68250;SDS011;55066;51.560;4.642;2023-04-06T00:30:17;29.80;;;13.33;;
68250;SDS011;55066;51.560;4.642;2023-04-06T00:32:42;29.93;;;13.07;;
68250;SDS011;55066;51.560;4.642;2023-04-06T00:35:08;32.70;;;12.90;;
68250;SDS011;55066;51.560;4.642;2023-04-06T00:37:34;29.93;;;13.00;;
68250;SDS011;55066;51.560;4.642;2023-04-06T00:39:59;30.07;;;12.70;;
68250;SDS011;55066;51.560;4.642;2023-04-06T00:42:25;27.33;;;11.88;;
68250;SDS011;55066;51.560;4.642;2023-04-06T00:44:58;28.67;;;12.37;;
68250;SDS011;55066;51.560;4.642;2023-04-06T00:47:25;28.88;;;12.68;;
68250;SDS011;55066;51.560;4.642;2023-04-06T00:49:51;29.80;;;12.27;;
68250;SDS011;55066;51.560;4.642;2023-04-06T00:52:17;30.50;;;12.35;;
68250;SDS011;55066;51.560;4.642;2023-04-06T00:54:45;33.15;;;12.15;;
68250;SDS011;55066;51.560;4.642;2023-04-06T00:57:12;31.63;;;13.33;;
68250;SDS011;55066;51.560;4.642;2023-04-06T00:59:38;30.00;;;12.25;;
68250;SDS011;55066;51.560;4.642;2023-04-06T01:02:07;30.70;;;12.15;;
68250;SDS011;55066;51.560;4.642;2023-04-06T01:04:39;30.85;;;13.25;;
68250;SDS011;55066;51.560;4.642;2023-04-06T01:07:10;28.63;;;12.57;;
68250;SDS011;55066;51.560;4.642;2023-04-06T01:09:43;29.80;;;13.00;;
68250;SDS011;55066;51.560;4.642;2023-04-06T01:12:16;30.58;;;11.73;;
68250;SDS011;55066;51.560;4.642;2023-04-06T01:14:42;31.30;;;12.90;;
68250;SDS011;55066;51.560;4.642;2023-04-06T01:17:08;31.70;;;12.57;;
68250;SDS011;55066;51.560;4.642;2023-04-06T01:19:33;28.10;;;12.13;;
68250;SDS011;55066;51.560;4.642;2023-04-06T01:21:59;25.75;;;12.00;;
68250;SDS011;55066;51.560;4.642;2023-04-06T01:24:31;33.08;;;13.43;;
68250;SDS011;55066;51.560;4.642;2023-04-06T01:27:02;30.03;;;12.67;;
68250;SDS011;55066;51.560;4.642;2023-04-06T01:29:39;28.85;;;12.60;;
68250;SDS011;55066;51.560;4.642;2023-04-06T01:32:10;31.05;;;13.13;;
68250;SDS011;55066;51.560;4.642;2023-04-06T01:34:44;29.45;;;11.95;;
68250;SDS011;55066;51.560;4.642;2023-04-06T01:37:10;33.42;;;13.13;;
68250;SDS011;55066;51.560;4.642;2023-04-06T01:39:36;30.48;;;11.95;;
68250;SDS011;55066;51.560;4.642;2023-04-06T01:42:04;30.70;;;12.23;;
68250;SDS011;55066;51.560;4.642;2023-04-06T01:44:32;31.88;;;12.50;;
68250;SDS011;55066;51.560;4.642;2023-04-06T01:47:06;28.42;;;12.02;;
68250;SDS011;55066;51.560;4.642;2023-04-06T01:49:32;30.20;;;11.73;;
68250;SDS011;55066;51.560;4.642;2023-04-06T01:51:57;29.02;;;12.02;;
68250;SDS011;55066;51.560;4.642;2023-04-06T01:54:23;29.05;;;10.98;;
68250;SDS011;55066;51.560;4.642;2023-04-06T01:57:06;35.67;;;12.57;;
68250;SDS011;55066;51.560;4.642;2023-04-06T01:59:38;33.47;;;12.98;;
68250;SDS011;55066;51.560;4.642;2023-04-06T02:02:10;28.45;;;12.10;;
68250;SDS011;55066;51.560;4.642;2023-04-06T02:04:38;33.60;;;11.77;;
68250;SDS011;55066;51.560;4.642;2023-04-06T02:07:09;29.45;;;12.05;;
68250;SDS011;55066;51.560;4.642;2023-04-06T02:09:35;32.28;;;12.85;;
68250;SDS011;55066;51.560;4.642;2023-04-06T02:12:02;26.08;;;10.90;;
68250;SDS011;55066;51.560;4.642;2023-04-06T02:14:30;29.23;;;12.23;;
68250;SDS011;55066;51.560;4.642;2023-04-06T02:16:59;28.77;;;12.68;;
68250;SDS011;55066;51.560;4.642;2023-04-06T02:19:24;33.33;;;13.13;;
68250;SDS011;55066;51.560;4.642;2023-04-06T02:21:50;30.30;;;12.43;;
68250;SDS011;55066;51.560;4.642;2023-04-06T02:24:15;27.17;;;8.07;;
68250;SDS011;55066;51.560;4.642;2023-04-06T02:26:41;29.73;;;12.33;;
68250;SDS011;55066;51.560;4.642;2023-04-06T02:29:06;28.08;;;12.27;;
68250;SDS011;55066;51.560;4.642;2023-04-06T02:31:32;36.50;;;13.40;;
68250;SDS011;55066;51.560;4.642;2023-04-06T02:33:58;31.67;;;13.07;;
68250;SDS011;55066;51.560;4.642;2023-04-06T02:36:24;35.20;;;12.95;;
68250;SDS011;55066;51.560;4.642;2023-04-06T02:38:50;27.87;;;10.83;;
68250;SDS011;55066;51.560;4.642;2023-04-06T02:41:16;33.33;;;13.77;;
68250;SDS011;55066;51.560;4.642;2023-04-06T02:43:42;30.23;;;12.25;;
68250;SDS011;55066;51.560;4.642;2023-04-06T02:46:22;29.57;;;12.20;;
68250;SDS011;55066;51.560;4.642;2023-04-06T02:48:47;32.00;;;13.18;;
68250;SDS011;55066;51.560;4.642;2023-04-06T02:51:13;33.15;;;12.30;;
68250;SDS011;55066;51.560;4.642;2023-04-06T02:53:41;32.53;;;12.32;;
68250;SDS011;55066;51.560;4.642;2023-04-06T02:56:07;32.53;;;12.47;;
68250;SDS011;55066;51.560;4.642;2023-04-06T02:58:48;31.27;;;12.02;;
68250;SDS011;55066;51.560;4.642;2023-04-06T03:01:14;31.60;;;12.32;;
68250;SDS011;55066;51.560;4.642;2023-04-06T03:03:41;33.35;;;12.00;;
68250;SDS011;55066;51.560;4.642;2023-04-06T03:06:12;29.27;;;11.55;;
68250;SDS011;55066;51.560;4.642;2023-04-06T03:08:38;32.25;;;12.68;;
68250;SDS011;55066;51.560;4.642;2023-04-06T03:11:04;33.90;;;12.30;;
68250;SDS011;55066;51.560;4.642;2023-04-06T03:13:36;34.05;;;12.23;;
68250;SDS011;55066;51.560;4.642;2023-04-06T03:16:04;30.40;;;11.90;;
68250;SDS011;55066;51.560;4.642;2023-04-06T03:18:30;31.30;;;12.07;;
68250;SDS011;55066;51.560;4.642;2023-04-06T03:20:56;25.23;;;8.73;;
68250;SDS011;55066;51.560;4.642;2023-04-06T03:23:27;30.40;;;11.65;;
68250;SDS011;55066;51.560;4.642;2023-04-06T03:25:57;28.95;;;11.88;;
68250;SDS011;55066;51.560;4.642;2023-04-06T03:28:22;29.38;;;11.48;;
68250;SDS011;55066;51.560;4.642;2023-04-06T03:30:57;28.10;;;11.60;;
68250;SDS011;55066;51.560;4.642;2023-04-06T03:33:39;32.83;;;12.03;;
68250;SDS011;55066;51.560;4.642;2023-04-06T03:36:06;31.42;;;11.98;;
68250;SDS011;55066;51.560;4.642;2023-04-06T03:38:36;28.77;;;12.00;;
68250;SDS011;55066;51.560;4.642;2023-04-06T03:41:08;26.10;;;11.13;;
68250;SDS011;55066;51.560;4.642;2023-04-06T03:43:33;30.17;;;12.30;;
68250;SDS011;55066;51.560;4.642;2023-04-06T03:45:59;27.73;;;11.23;;
68250;SDS011;55066;51.560;4.642;2023-04-06T03:48:25;28.57;;;11.13;;
68250;SDS011;55066;51.560;4.642;2023-04-06T03:50:50;28.80;;;11.43;;
68250;SDS011;55066;51.560;4.642;2023-04-06T03:53:16;31.13;;;11.15;;
68250;SDS011;55066;51.560;4.642;2023-04-06T03:55:41;32.17;;;12.10;;
68250;SDS011;55066;51.560;4.642;2023-04-06T03:58:06;29.73;;;10.90;;
68250;SDS011;55066;51.560;4.642;2023-04-06T04:00:32;28.97;;;11.27;;
68250;SDS011;55066;51.560;4.642;2023-04-06T04:02:58;25.55;;;11.10;;
68250;SDS011;55066;51.560;4.642;2023-04-06T04:05:23;33.10;;;12.52;;
68250;SDS011;55066;51.560;4.642;2023-04-06T04:07:51;28.35;;;11.38;;
68250;SDS011;55066;51.560;4.642;2023-04-06T04:10:19;29.42;;;11.82;;
68250;SDS011;55066;51.560;4.642;2023-04-06T04:12:45;28.70;;;11.43;;
68250;SDS011;55066;51.560;4.642;2023-04-06T04:15:10;26.33;;;10.93;;
68250;SDS011;55066;51.560;4.642;2023-04-06T04:17:36;27.53;;;11.40;;
68250;SDS011;55066;51.560;4.642;2023-04-06T04:20:01;29.77;;;11.70;;
68250;SDS011;55066;51.560;4.642;2023-04-06T04:22:27;31.47;;;11.00;;
68250;SDS011;55066;51.560;4.642;2023-04-06T04:24:55;29.33;;;11.20;;
68250;SDS011;55066;51.560;4.642;2023-04-06T04:27:21;35.07;;;11.50;;
68250;SDS011;55066;51.560;4.642;2023-04-06T04:29:48;29.90;;;12.10;;
68250;SDS011;55066;51.560;4.642;2023-04-06T04:32:13;28.20;;;10.82;;
68250;SDS011;55066;51.560;4.642;2023-04-06T04:34:39;27.23;;;11.05;;
68250;SDS011;55066;51.560;4.642;2023-04-06T04:37:06;27.38;;;10.68;;
68250;SDS011;55066;51.560;4.642;2023-04-06T04:39:44;29.55;;;10.52;;
68250;SDS011;55066;51.560;4.642;2023-04-06T04:42:10;25.90;;;11.37;;
68250;SDS011;55066;51.560;4.642;2023-04-06T04:44:41;29.80;;;11.63;;
68250;SDS011;55066;51.560;4.642;2023-04-06T04:47:07;28.80;;;11.10;;
68250;SDS011;55066;51.560;4.642;2023-04-06T04:49:41;28.95;;;11.30;;
68250;SDS011;55066;51.560;4.642;2023-04-06T04:52:06;28.87;;;11.43;;
68250;SDS011;55066;51.560;4.642;2023-04-06T04:54:43;26.73;;;10.18;;
68250;SDS011;55066;51.560;4.642;2023-04-06T04:57:13;29.50;;;11.75;;
68250;SDS011;55066;51.560;4.642;2023-04-06T04:59:40;24.95;;;10.77;;
68250;SDS011;55066;51.560;4.642;2023-04-06T05:02:14;31.10;;;12.77;;
68250;SDS011;55066;51.560;4.642;2023-04-06T05:05:00;27.42;;;10.55;;
68250;SDS011;55066;51.560;4.642;2023-04-06T05:07:27;30.63;;;11.13;;
68250;SDS011;55066;51.560;4.642;2023-04-06T05:09:54;30.00;;;11.35;;
68250;SDS011;55066;51.560;4.642;2023-04-06T05:12:23;31.85;;;11.02;;
68250;SDS011;55066;51.560;4.642;2023-04-06T05:14:59;27.87;;;11.27;;
68250;SDS011;55066;51.560;4.642;2023-04-06T05:17:25;28.50;;;11.07;;
68250;SDS011;55066;51.560;4.642;2023-04-06T05:19:51;29.55;;;11.57;;
68250;SDS011;55066;51.560;4.642;2023-04-06T05:22:21;29.98;;;11.30;;
68250;SDS011;55066;51.560;4.642;2023-04-06T05:24:55;31.40;;;11.98;;
68250;SDS011;55066;51.560;4.642;2023-04-06T05:27:21;31.53;;;11.53;;
68250;SDS011;55066;51.560;4.642;2023-04-06T05:29:47;30.25;;;11.30;;
68250;SDS011;55066;51.560;4.642;2023-04-06T05:32:13;31.58;;;11.90;;
68250;SDS011;55066;51.560;4.642;2023-04-06T05:34:39;31.53;;;11.60;;
68250;SDS011;55066;51.560;4.642;2023-04-06T05:37:05;28.98;;;11.52;;
68250;SDS011;55066;51.560;4.642;2023-04-06T05:39:31;27.77;;;11.67;;
68250;SDS011;55066;51.560;4.642;2023-04-06T05:41:56;30.57;;;11.93;;
68250;SDS011;55066;51.560;4.642;2023-04-06T05:44:37;30.63;;;12.27;;
68250;SDS011;55066;51.560;4.642;2023-04-06T05:47:10;28.33;;;11.43;;
68250;SDS011;55066;51.560;4.642;2023-04-06T05:49:37;30.05;;;11.38;;
68250;SDS011;55066;51.560;4.642;2023-04-06T05:52:05;33.27;;;11.47;;
68250;SDS011;55066;51.560;4.642;2023-04-06T05:54:32;27.60;;;11.43;;
68250;SDS011;55066;51.560;4.642;2023-04-06T05:57:01;26.63;;;11.55;;
68250;SDS011;55066;51.560;4.642;2023-04-06T05:59:27;28.75;;;11.82;;
68250;SDS011;55066;51.560;4.642;2023-04-06T06:01:52;33.03;;;11.50;;
68250;SDS011;55066;51.560;4.642;2023-04-06T06:04:19;31.35;;;12.68;;
68250;SDS011;55066;51.560;4.642;2023-04-06T06:06:45;29.30;;;11.60;;
68250;SDS011;55066;51.560;4.642;2023-04-06T06:09:26;29.20;;;11.93;;
68250;SDS011;55066;51.560;4.642;2023-04-06T06:12:03;32.17;;;11.90;;
68250;SDS011;55066;51.560;4.642;2023-04-06T06:14:29;31.03;;;11.80;;
68250;SDS011;55066;51.560;4.642;2023-04-06T06:16:55;26.05;;;11.38;;
68250;SDS011;55066;51.560;4.642;2023-04-06T06:19:20;30.80;;;11.17;;
68250;SDS011;55066;51.560;4.642;2023-04-06T06:21:46;29.35;;;11.90;;
68250;SDS011;55066;51.560;4.642;2023-04-06T06:24:12;27.00;;;11.13;;
68250;SDS011;55066;51.560;4.642;2023-04-06T06:26:38;30.42;;;11.55;;
68250;SDS011;55066;51.560;4.642;2023-04-06T06:29:06;32.10;;;12.75;;
68250;SDS011;55066;51.560;4.642;2023-04-06T06:31:34;27.17;;;11.67;;
68250;SDS011;55066;51.560;4.642;2023-04-06T06:34:00;29.83;;;12.07;;
68250;SDS011;55066;51.560;4.642;2023-04-06T06:36:27;30.20;;;11.50;;
68250;SDS011;55066;51.560;4.642;2023-04-06T06:38:54;28.23;;;11.25;;
68250;SDS011;55066;51.560;4.642;2023-04-06T06:41:20;26.83;;;11.15;;
68250;SDS011;55066;51.560;4.642;2023-04-06T06:43:46;30.37;;;11.63;;
68250;SDS011;55066;51.560;4.642;2023-04-06T06:46:11;27.13;;;11.20;;
68250;SDS011;55066;51.560;4.642;2023-04-06T06:48:38;28.20;;;11.47;;
68250;SDS011;55066;51.560;4.642;2023-04-06T06:51:04;25.63;;;11.50;;
68250;SDS011;55066;51.560;4.642;2023-04-06T06:53:29;30.27;;;11.73;;
68250;SDS011;55066;51.560;4.642;2023-04-06T06:55:55;27.65;;;11.38;;
68250;SDS011;55066;51.560;4.642;2023-04-06T06:58:22;31.70;;;12.00;;
68250;SDS011;55066;51.560;4.642;2023-04-06T07:00:47;26.60;;;11.88;;
68250;SDS011;55066;51.560;4.642;2023-04-06T07:03:13;30.33;;;11.30;;
68250;SDS011;55066;51.560;4.642;2023-04-06T07:05:39;30.52;;;10.80;;
68250;SDS011;55066;51.560;4.642;2023-04-06T07:08:05;25.38;;;11.25;;
68250;SDS011;55066;51.560;4.642;2023-04-06T07:10:30;32.77;;;12.00;;
68250;SDS011;55066;51.560;4.642;2023-04-06T07:12:55;29.98;;;12.07;;
68250;SDS011;55066;51.560;4.642;2023-04-06T07:15:23;30.07;;;11.43;;
68250;SDS011;55066;51.560;4.642;2023-04-06T07:17:49;31.50;;;12.32;;
68250;SDS011;55066;51.560;4.642;2023-04-06T07:20:15;29.13;;;10.40;;
68250;SDS011;55066;51.560;4.642;2023-04-06T07:22:42;32.27;;;12.23;;
68250;SDS011;55066;51.560;4.642;2023-04-06T07:25:09;31.67;;;12.35;;
68250;SDS011;55066;51.560;4.642;2023-04-06T07:27:35;31.03;;;13.00;;
68250;SDS011;55066;51.560;4.642;2023-04-06T07:30:00;34.67;;;12.38;;
68250;SDS011;55066;51.560;4.642;2023-04-06T07:32:26;29.13;;;11.00;;
68250;SDS011;55066;51.560;4.642;2023-04-06T07:34:52;37.75;;;12.93;;
68250;SDS011;55066;51.560;4.642;2023-04-06T07:37:17;29.33;;;12.27;;
68250;SDS011;55066;51.560;4.642;2023-04-06T07:39:43;33.88;;;14.27;;
68250;SDS011;55066;51.560;4.642;2023-04-06T07:42:10;33.93;;;13.47;;
68250;SDS011;55066;51.560;4.642;2023-04-06T07:44:36;35.42;;;14.02;;
68250;SDS011;55066;51.560;4.642;2023-04-06T07:47:01;31.23;;;13.53;;
68250;SDS011;55066;51.560;4.642;2023-04-06T07:49:27;36.67;;;14.00;;
68250;SDS011;55066;51.560;4.642;2023-04-06T07:51:53;31.88;;;14.15;;
68250;SDS011;55066;51.560;4.642;2023-04-06T07:54:19;35.15;;;14.00;;
68250;SDS011;55066;51.560;4.642;2023-04-06T07:56:45;36.50;;;14.63;;
68250;SDS011;55066;51.560;4.642;2023-04-06T07:59:10;38.20;;;14.90;;
68250;SDS011;55066;51.560;4.642;2023-04-06T08:01:36;40.30;;;15.52;;
68250;SDS011;55066;51.560;4.642;2023-04-06T08:04:01;36.90;;;15.40;;
68250;SDS011;55066;51.560;4.642;2023-04-06T08:06:27;35.30;;;14.85;;
68250;SDS011;55066;51.560;4.642;2023-04-06T08:08:53;37.40;;;15.48;;
68250;SDS011;55066;51.560;4.642;2023-04-06T08:11:19;38.30;;;16.88;;
68250;SDS011;55066;51.560;4.642;2023-04-06T08:13:45;31.07;;;13.40;;
68250;SDS011;55066;51.560;4.642;2023-04-06T08:16:10;37.03;;;15.33;;
68250;SDS011;55066;51.560;4.642;2023-04-06T08:18:36;39.88;;;15.63;;
68250;SDS011;55066;51.560;4.642;2023-04-06T08:21:01;32.90;;;14.77;;
68250;SDS011;55066;51.560;4.642;2023-04-06T08:23:26;33.50;;;13.40;;
68250;SDS011;55066;51.560;4.642;2023-04-06T08:25:52;25.93;;;11.47;;
68250;SDS011;55066;51.560;4.642;2023-04-06T08:28:21;28.63;;;12.50;;
68250;SDS011;55066;51.560;4.642;2023-04-06T08:30:46;29.48;;;12.40;;
68250;SDS011;55066;51.560;4.642;2023-04-06T08:33:12;25.85;;;10.68;;
68250;SDS011;55066;51.560;4.642;2023-04-06T08:35:37;23.73;;;10.13;;
68250;SDS011;55066;51.560;4.642;2023-04-06T08:38:02;23.47;;;10.10;;
68250;SDS011;55066;51.560;4.642;2023-04-06T08:40:28;23.47;;;10.77;;
68250;SDS011;55066;51.560;4.642;2023-04-06T08:42:56;25.25;;;10.55;;
68250;SDS011;55066;51.560;4.642;2023-04-06T08:45:27;23.77;;;9.27;;
68250;SDS011;55066;51.560;4.642;2023-04-06T08:47:52;24.88;;;10.18;;
68250;SDS011;55066;51.560;4.642;2023-04-06T08:50:19;28.30;;;9.30;;
68250;SDS011;55066;51.560;4.642;2023-04-06T08:52:46;24.33;;;9.48;;
68250;SDS011;55066;51.560;4.642;2023-04-06T08:55:13;22.65;;;9.07;;
68250;SDS011;55066;51.560;4.642;2023-04-06T08:57:39;20.95;;;8.50;;
68250;SDS011;55066;51.560;4.642;2023-04-06T09:00:06;16.45;;;7.40;;
68250;SDS011;55066;51.560;4.642;2023-04-06T09:02:36;17.77;;;7.63;;
68250;SDS011;55066;51.560;4.642;2023-04-06T09:05:04;22.80;;;8.77;;
68250;SDS011;55066;51.560;4.642;2023-04-06T09:07:29;19.10;;;7.63;;
68250;SDS011;55066;51.560;4.642;2023-04-06T09:09:56;14.40;;;6.60;;
68250;SDS011;55066;51.560;4.642;2023-04-06T09:12:22;15.83;;;6.83;;
68250;SDS011;55066;51.560;4.642;2023-04-06T09:14:54;15.73;;;6.88;;
68250;SDS011;55066;51.560;4.642;2023-04-06T09:17:21;16.98;;;6.50;;
68250;SDS011;55066;51.560;4.642;2023-04-06T09:19:47;18.80;;;7.37;;
68250;SDS011;55066;51.560;4.642;2023-04-06T09:22:13;15.63;;;7.10;;
68250;SDS011;55066;51.560;4.642;2023-04-06T09:24:46;18.40;;;7.03;;
68250;SDS011;55066;51.560;4.642;2023-04-06T09:27:13;15.45;;;6.97;;
68250;SDS011;55066;51.560;4.642;2023-04-06T09:29:40;15.63;;;6.32;;
68250;SDS011;55066;51.560;4.642;2023-04-06T09:32:07;12.32;;;5.15;;
68250;SDS011;55066;51.560;4.642;2023-04-06T09:34:36;16.65;;;6.72;;
68250;SDS011;55066;51.560;4.642;2023-04-06T09:37:14;17.50;;;6.83;;
68250;SDS011;55066;51.560;4.642;2023-04-06T09:39:44;23.30;;;7.63;;
68250;SDS011;55066;51.560;4.642;2023-04-06T09:42:31;15.82;;;7.03;;
68250;SDS011;55066;51.560;4.642;2023-04-06T09:44:56;20.58;;;7.53;;
68250;SDS011;55066;51.560;4.642;2023-04-06T09:47:22;18.73;;;7.43;;
68250;SDS011;55066;51.560;4.642;2023-04-06T09:49:48;16.80;;;6.80;;
68250;SDS011;55066;51.560;4.642;2023-04-06T09:52:15;17.80;;;7.32;;
68250;SDS011;55066;51.560;4.642;2023-04-06T09:54:42;17.73;;;7.27;;
68250;SDS011;55066;51.560;4.642;2023-04-06T09:57:11;19.30;;;7.32;;
68250;SDS011;55066;51.560;4.642;2023-04-06T10:08:16;20.50;;;8.77;;
68250;SDS011;55066;51.560;4.642;2023-04-06T10:10:44;21.73;;;8.68;;
68250;SDS011;55066;51.560;4.642;2023-04-06T10:13:10;20.33;;;8.85;;
68250;SDS011;55066;51.560;4.642;2023-04-06T10:15:36;22.37;;;8.70;;
68250;SDS011;55066;51.560;4.642;2023-04-06T10:18:03;22.58;;;8.85;;
68250;SDS011;55066;51.560;4.642;2023-04-06T10:20:49;16.60;;;6.63;;
68250;SDS011;55066;51.560;4.642;2023-04-06T10:23:34;21.65;;;8.52;;
68250;SDS011;55066;51.560;4.642;2023-04-06T10:26:12;20.98;;;9.13;;
68250;SDS011;55066;51.560;4.642;2023-04-06T10:28:42;20.57;;;9.17;;
68250;SDS011;55066;51.560;4.642;2023-04-06T10:31:09;18.75;;;8.38;;
68250;SDS011;55066;51.560;4.642;2023-04-06T10:33:34;21.50;;;7.68;;
68250;SDS011;55066;51.560;4.642;2023-04-06T10:36:13;20.60;;;8.40;;
68250;SDS011;55066;51.560;4.642;2023-04-06T10:38:40;19.48;;;7.75;;
68250;SDS011;55066;51.560;4.642;2023-04-06T10:41:06;15.75;;;6.80;;
68250;SDS011;55066;51.560;4.642;2023-04-06T10:43:34;16.13;;;7.95;;
68250;SDS011;55066;51.560;4.642;2023-04-06T10:46:01;16.10;;;6.60;;
68250;SDS011;55066;51.560;4.642;2023-04-06T10:48:37;13.82;;;5.53;;
68250;SDS011;55066;51.560;4.642;2023-04-06T10:51:12;17.05;;;7.47;;
68250;SDS011;55066;51.560;4.642;2023-04-06T10:53:39;14.75;;;7.10;;
68250;SDS011;55066;51.560;4.642;2023-04-06T10:56:09;14.88;;;7.00;;
68250;SDS011;55066;51.560;4.642;2023-04-06T10:58:38;16.50;;;7.03;;
68250;SDS011;55066;51.560;4.642;2023-04-06T11:01:14;15.88;;;6.28;;
68250;SDS011;55066;51.560;4.642;2023-04-06T11:03:44;17.73;;;6.80;;
68250;SDS011;55066;51.560;4.642;2023-04-06T11:06:10;15.18;;;6.63;;
68250;SDS011;55066;51.560;4.642;2023-04-06T11:08:36;14.97;;;6.73;;
68250;SDS011;55066;51.560;4.642;2023-04-06T11:13:41;14.05;;;6.35;;
68250;SDS011;55066;51.560;4.642;2023-04-06T11:16:12;14.85;;;6.93;;
68250;SDS011;55066;51.560;4.642;2023-04-06T11:18:45;15.57;;;6.90;;
68250;SDS011;55066;51.560;4.642;2023-04-06T11:21:12;16.73;;;7.07;;
68250;SDS011;55066;51.560;4.642;2023-04-06T11:23:37;19.02;;;8.00;;
68250;SDS011;55066;51.560;4.642;2023-04-06T11:26:03;13.50;;;5.00;;
68250;SDS011;55066;51.560;4.642;2023-04-06T11:28:28;15.37;;;6.80;;
68250;SDS011;55066;51.560;4.642;2023-04-06T11:30:55;16.55;;;5.68;;
68250;SDS011;55066;51.560;4.642;2023-04-06T11:33:21;13.55;;;6.28;;
68250;SDS011;55066;51.560;4.642;2023-04-06T11:35:47;14.03;;;6.27;;
68250;SDS011;55066;51.560;4.642;2023-04-06T11:38:13;18.67;;;8.00;;
68250;SDS011;55066;51.560;4.642;2023-04-06T11:40:39;14.75;;;7.05;;
68250;SDS011;55066;51.560;4.642;2023-04-06T11:43:04;23.00;;;9.13;;
68250;SDS011;55066;51.560;4.642;2023-04-06T11:45:41;19.75;;;8.88;;
68250;SDS011;55066;51.560;4.642;2023-04-06T11:48:17;20.80;;;8.75;;
68250;SDS011;55066;51.560;4.642;2023-04-06T11:50:46;20.55;;;7.68;;
68250;SDS011;55066;51.560;4.642;2023-04-06T11:53:13;19.80;;;8.45;;
68250;SDS011;55066;51.560;4.642;2023-04-06T11:55:38;15.03;;;6.60;;
68250;SDS011;55066;51.560;4.642;2023-04-06T11:58:05;17.50;;;7.47;;
68250;SDS011;55066;51.560;4.642;2023-04-06T12:00:32;17.52;;;8.35;;
68250;SDS011;55066;51.560;4.642;2023-04-06T12:02:59;12.82;;;6.32;;
68250;SDS011;55066;51.560;4.642;2023-04-06T12:05:25;18.60;;;8.73;;
68250;SDS011;55066;51.560;4.642;2023-04-06T12:07:51;17.48;;;7.82;;
68250;SDS011;55066;51.560;4.642;2023-04-06T12:10:16;16.70;;;7.87;;
68250;SDS011;55066;51.560;4.642;2023-04-06T12:12:42;19.90;;;9.67;;
68250;SDS011;55066;51.560;4.642;2023-04-06T12:15:07;23.80;;;9.70;;
68250;SDS011;55066;51.560;4.642;2023-04-06T12:17:33;18.65;;;7.57;;
68250;SDS011;55066;51.560;4.642;2023-04-06T12:19:58;18.37;;;8.63;;
68250;SDS011;55066;51.560;4.642;2023-04-06T12:22:24;21.07;;;8.70;;
68250;SDS011;55066;51.560;4.642;2023-04-06T12:24:49;19.65;;;9.05;;
68250;SDS011;55066;51.560;4.642;2023-04-06T12:27:14;21.38;;;9.88;;
68250;SDS011;55066;51.560;4.642;2023-04-06T12:29:40;22.27;;;9.67;;
68250;SDS011;55066;51.560;4.642;2023-04-06T12:32:05;23.77;;;10.00;;
68250;SDS011;55066;51.560;4.642;2023-04-06T12:34:31;20.73;;;9.52;;
68250;SDS011;55066;51.560;4.642;2023-04-06T12:36:56;23.30;;;10.10;;
68250;SDS011;55066;51.560;4.642;2023-04-06T12:39:22;22.80;;;9.20;;
68250;SDS011;55066;51.560;4.642;2023-04-06T12:41:48;18.80;;;8.27;;
68250;SDS011;55066;51.560;4.642;2023-04-06T12:44:13;22.87;;;9.93;;
68250;SDS011;55066;51.560;4.642;2023-04-06T12:46:38;20.53;;;9.23;;
68250;SDS011;55066;51.560;4.642;2023-04-06T12:49:04;20.67;;;8.85;;
68250;SDS011;55066;51.560;4.642;2023-04-06T12:51:30;21.53;;;9.53;;
68250;SDS011;55066;51.560;4.642;2023-04-06T12:53:56;18.98;;;9.82;;
68250;SDS011;55066;51.560;4.642;2023-04-06T12:56:21;19.17;;;9.03;;
68250;SDS011;55066;51.560;4.642;2023-04-06T12:58:47;21.67;;;9.73;;
68250;SDS011;55066;51.560;4.642;2023-04-06T13:01:13;11.27;;;6.20;;
68250;SDS011;55066;51.560;4.642;2023-04-06T13:03:39;19.47;;;8.53;;
68250;SDS011;55066;51.560;4.642;2023-04-06T13:06:05;17.92;;;8.88;;
68250;SDS011;55066;51.560;4.642;2023-04-06T13:08:33;18.23;;;7.72;;
68250;SDS011;55066;51.560;4.642;2023-04-06T13:10:58;18.87;;;8.13;;
68250;SDS011;55066;51.560;4.642;2023-04-06T13:13:24;17.33;;;7.33;;
68250;SDS011;55066;51.560;4.642;2023-04-06T13:15:54;19.52;;;9.70;;
68250;SDS011;55066;51.560;4.642;2023-04-06T13:18:24;17.80;;;8.00;;
68250;SDS011;55066;51.560;4.642;2023-04-06T13:20:50;19.07;;;8.80;;
68250;SDS011;55066;51.560;4.642;2023-04-06T13:23:15;20.63;;;8.83;;
68250;SDS011;55066;51.560;4.642;2023-04-06T13:25:41;20.40;;;9.57;;
68250;SDS011;55066;51.560;4.642;2023-04-06T13:28:07;17.87;;;7.60;;
68250;SDS011;55066;51.560;4.642;2023-04-06T13:30:32;20.98;;;9.45;;
68250;SDS011;55066;51.560;4.642;2023-04-06T13:32:58;19.97;;;8.40;;
68250;SDS011;55066;51.560;4.642;2023-04-06T13:35:23;19.17;;;8.83;;
68250;SDS011;55066;51.560;4.642;2023-04-06T13:37:49;13.90;;;6.70;;
68250;SDS011;55066;51.560;4.642;2023-04-06T13:40:16;18.10;;;6.80;;
68250;SDS011;55066;51.560;4.642;2023-04-06T13:42:42;19.83;;;8.15;;
68250;SDS011;55066;51.560;4.642;2023-04-06T13:45:09;19.45;;;7.90;;
68250;SDS011;55066;51.560;4.642;2023-04-06T13:47:34;23.35;;;10.55;;
68250;SDS011;55066;51.560;4.642;2023-04-06T13:50:00;24.70;;;9.83;;
68250;SDS011;55066;51.560;4.642;2023-04-06T13:52:25;20.37;;;9.70;;
68250;SDS011;55066;51.560;4.642;2023-04-06T13:54:51;22.83;;;9.90;;
68250;SDS011;55066;51.560;4.642;2023-04-06T13:57:17;21.77;;;10.35;;
68250;SDS011;55066;51.560;4.642;2023-04-06T13:59:42;22.63;;;10.20;;
68250;SDS011;55066;51.560;4.642;2023-04-06T14:02:08;22.30;;;9.97;;
68250;SDS011;55066;51.560;4.642;2023-04-06T14:04:35;25.15;;;10.55;;
68250;SDS011;55066;51.560;4.642;2023-04-06T14:07:01;21.77;;;10.17;;
68250;SDS011;55066;51.560;4.642;2023-04-06T14:09:28;25.17;;;11.02;;
68250;SDS011;55066;51.560;4.642;2023-04-06T14:11:54;22.88;;;10.50;;
68250;SDS011;55066;51.560;4.642;2023-04-06T14:14:20;24.70;;;10.48;;
68250;SDS011;55066;51.560;4.642;2023-04-06T14:16:47;17.10;;;8.83;;
68250;SDS011;55066;51.560;4.642;2023-04-06T14:19:16;20.38;;;9.57;;
68250;SDS011;55066;51.560;4.642;2023-04-06T14:21:46;20.42;;;9.07;;
68250;SDS011;55066;51.560;4.642;2023-04-06T14:24:12;25.55;;;10.30;;
68250;SDS011;55066;51.560;4.642;2023-04-06T14:26:39;22.50;;;8.55;;
68250;SDS011;55066;51.560;4.642;2023-04-06T14:29:05;20.48;;;8.35;;
68250;SDS011;55066;51.560;4.642;2023-04-06T14:31:31;23.80;;;10.70;;
68250;SDS011;55066;51.560;4.642;2023-04-06T14:33:57;22.92;;;10.07;;
68250;SDS011;55066;51.560;4.642;2023-04-06T14:36:23;20.03;;;8.70;;
68250;SDS011;55066;51.560;4.642;2023-04-06T14:38:48;20.02;;;9.45;;